Latest Weather Observations for Essendon Airport

IDV60901

Issued at 4:41 am EST Wednesday 26 July 2017 (issued every 10 minutes, with the page automatically refreshed every 10 minutes)

About weather observations | Map of Melbourne area stations | Latest observations for Melbourne area | Other Formats
Station Details ID: 086038 Name: ESSENDON AIRPORT Lat: -37.73 Lon: 144.91 Height: 78.4 m
Data from the previous 72 hours. | See also: Recent months at Essendon Airport
Date/Time
EST
Temp
°C
App
Temp
°C
Dew
Point
°C
Rel
Hum
%
Delta-T
°C
Wind Press
QNH
hPa
Press
MSL
hPa
Rain since
9am
mm
Dir  Spd
km/h
Gust
km/h
Spd
kts
Gust
kts
26/04:30am 10.8 6.1 6.0 72 2.2 WNW 20 33 11 18 1013.6 1013.8 0.0
26/04:00am 10.7 5.9 5.7 71 2.3 WNW 20 32 11 17 1013.5 1013.7 0.0
26/03:30am 10.5 6.3 5.7 72 2.2 NW 17 24 9 13 1013.5 1013.7 0.0
26/03:00am 9.0 5.7 6.3 83 1.2 NNW 13 19 7 10 1013.7 1013.9 0.0
26/02:30am 8.7 5.7 6.2 84 1.2 N 11 15 6 8 1013.7 1013.9 0.0
26/02:00am 8.8 5.8 6.1 83 1.2 N 11 17 6 9 1013.6 1013.8 0.0
26/01:30am 9.8 6.3 5.6 75 1.9 N 13 28 7 15 1013.6 1013.8 0.0
26/01:00am 10.7 7.2 5.5 70 2.4 NW 13 19 7 10 1013.6 1013.8 0.0
26/12:30am 11.7 6.9 5.8 67 2.8 WNW 20 35 11 19 1013.5 1013.7 0.0
26/12:00am 11.9 8.2 6.4 69 2.6 NW 15 24 8 13 1013.4 1013.6 0.0
 
Date/Time
EST
Temp
°C
App
Temp
°C
Dew
Point
°C
Rel
Hum
%
Delta-T
°C
Wind Press
QNH
hPa
Press
MSL
hPa
Rain since
9am
mm
Dir  Spd
km/h
Gust
km/h
Spd
kts
Gust
kts
25/11:30pm 10.2 6.5 6.5 78 1.7 NNW 15 20 8 11 1013.5 1013.7 0.0
25/11:00pm 10.3 7.7 6.3 76 1.9 N 9 13 5 7 1013.5 1013.7 0.0
25/10:30pm 10.0 7.4 6.3 78 1.7 N 9 13 5 7 1013.3 1013.5 0.0
25/10:00pm 11.0 7.4 6.6 74 2.1 NNW 15 20 8 11 1013.1 1013.3 0.0
25/09:30pm 10.9 6.9 6.5 74 2.1 NNW 17 24 9 13 1013.2 1013.4 0.0
25/09:00pm 11.6 8.3 6.3 70 2.5 N 13 19 7 10 1013.3 1013.5 0.0
25/08:30pm 13.0 6.9 6.6 65 3.1 NW 28 43 15 23 1012.8 1013.0 0.0
25/08:00pm 13.9 9.1 7.4 65 3.2 NW 22 35 12 19 1012.5 1012.7 0.0
25/07:30pm 12.7 8.7 9.0 78 1.9 NNW 20 32 11 17 1012.5 1012.7 0.0
25/07:00pm 13.1 10.2 8.2 72 2.4 NW 13 22 7 12 1012.9 1013.1 0.0
25/06:30pm 12.8 9.6 8.5 75 2.1 W 15 20 8 11 1012.7 1012.9 0.0
25/06:00pm 14.6 10.4 8.1 65 3.3 NW 20 37 11 20 1012.3 1012.5 0.0
25/05:30pm 15.2 11.2 8.9 66 3.2 N 20 28 11 15 1011.6 1011.8 0.0
25/05:00pm 15.3 10.5 9.0 66 3.2 N 24 37 13 20 1011.6 1011.8 0.0
25/04:30pm 16.0 11.2 9.0 63 3.6 NNW 24 37 13 20 1011.9 1012.1 0.0
25/04:00pm 16.3 11.0 8.5 60 4.0 N 26 39 14 21 1011.7 1011.9 0.0
25/03:30pm 16.4 9.3 8.1 58 4.2 NNW 35 46 19 25 1011.6 1011.8 0.0
25/03:05pm 16.2 10.3 8.9 62 3.8 N 30 48 16 26 1012.1 1012.3 0.0
25/03:00pm 15.6 9.0 8.4 62 3.7 N 33 48 18 26 1011.8 1012.0 0.0
25/02:34pm 15.3 8.1 7.8 61 3.8 N 35 54 19 29 1011.7 1011.9 0.0
25/02:30pm 15.5 8.5 8.3 62 3.6 N 35 46 19 25 1011.7 1011.9 0.0
25/02:15pm 15.6 8.5 8.1 61 3.8 N 35 54 19 29 1011.9 1012.1 0.0
25/02:00pm 15.6 8.8 7.9 60 3.9 N 33 50 18 27 1012.0 1012.2 0.0
25/01:30pm 15.7 8.9 7.7 59 4.0 N 33 52 18 28 1012.4 1012.6 0.0
25/01:00pm 15.2 8.1 8.2 63 3.5 N 35 54 19 29 1012.9 1013.1 0.0
25/12:50pm 14.8 7.2 7.4 61 3.7 N 37 57 20 31 1013.2 1013.4 0.0
25/12:30pm 14.6 7.0 7.6 63 3.5 N 37 50 20 27 1013.5 1013.7 0.0
25/12:00pm 14.9 7.3 7.7 62 3.6 N 37 56 20 30 1014.2 1014.4 0.0
25/11:42am 14.0 6.3 7.1 63 3.4 N 37 57 20 31 1014.6 1014.8 0.0
25/11:30am 13.9 6.6 7.0 63 3.4 N 35 52 19 28 1014.8 1015.0 0.0
25/11:04am 13.7 5.8 7.9 68 2.9 N 39 57 21 31 1015.4 1015.5 0.0
25/11:00am 13.1 4.3 7.1 67 2.9 N 43 57 23 31 1015.2 1015.3 0.0
25/10:42am 12.8 5.6 7.5 70 2.6 N 35 56 19 30 1015.5 1015.6 0.0
25/10:30am 12.5 5.4 8.2 75 2.1 N 35 52 19 28 1015.9 1016.0 0.0
25/10:02am 10.9 2.8 7.2 78 1.8 N 39 57 21 31 1015.9 1016.0 0.0
25/10:00am 10.8 3.1 7.3 79 1.7 N 37 52 20 28 1016.0 1016.1 0.0
25/09:30am 10.1 3.5 7.7 85 1.2 N 32 46 17 25 1016.3 1016.4 0.0
25/09:00am 9.4 2.1 7.3 87 1.0 N 35 46 19 25 1016.3 1016.4 0.0
25/08:30am 9.2 2.5 7.2 87 0.9 N 32 43 17 23 1016.1 1016.2 0.0
25/08:00am 8.8 1.1 7.1 89 0.8 N 37 56 20 30 1015.9 1016.0 0.0
25/07:56am 8.6 0.9 6.9 89 0.8 N 37 56 20 30 1016.1 1016.2 0.0
25/07:30am 8.9 1.6 7.0 88 0.9 N 35 50 19 27 1016.0 1016.1 0.0
25/07:00am 9.2 2.2 7.0 86 1.0 N 33 48 18 26 1016.2 1016.3 0.0
25/06:30am 9.3 2.4 7.4 88 0.9 N 33 52 18 28 1016.3 1016.4 0.0
25/06:23am 9.2 2.9 7.3 88 0.9 N 30 48 16 26 1016.5 1016.6 0.0
25/06:00am 9.1 2.8 7.2 88 0.9 N 30 44 16 24 1016.6 1016.7 0.0
25/05:49am 9.3 2.7 7.6 89 0.8 N 32 50 17 27 1016.5 1016.6 0.0
25/05:30am 9.3 2.4 7.4 88 0.9 N 33 43 18 23 1016.6 1016.7 0.0
25/05:00am 10.0 3.4 7.6 85 1.2 NNW 32 44 17 24 1016.4 1016.5 0.0
25/04:30am 9.9 3.1 7.8 87 1.0 N 33 46 18 25 1016.2 1016.3 0.0
25/04:00am 9.3 3.6 8.2 93 0.5 N 28 39 15 21 1016.7 1016.8 0.0
25/03:30am 9.3 4.0 8.5 95 0.4 N 26 39 14 21 1017.1 1017.2 0.0
25/03:00am 9.3 4.0 8.4 94 0.4 N 26 35 14 19 1017.6 1017.7 0.0
25/02:30am 9.5 5.1 8.9 96 0.3 N 22 32 12 17 1017.8 1017.9 0.0
25/02:00am 9.0 4.1 8.6 97 0.2 N 24 35 13 19 1018.0 1018.1 0.0
25/01:30am 9.4 5.4 8.9 97 0.2 N 20 28 11 15 1018.1 1018.2 0.0
25/01:00am 9.1 5.0 8.8 98 0.1 N 20 32 11 17 1018.2 1018.3 0.0
25/12:30am 9.4 5.4 8.9 97 0.2 N 20 30 11 16 1018.3 1018.4 0.0
25/12:00am 10.0 6.2 9.2 95 0.4 N 19 26 10 14 1018.6 1018.7 0.0
 
Date/Time
EST
Temp
°C
App
Temp
°C
Dew
Point
°C
Rel
Hum
%
Delta-T
°C
Wind Press
QNH
hPa
Press
MSL
hPa
Rain since
9am
mm
Dir  Spd
km/h
Gust
km/h
Spd
kts
Gust
kts
24/11:30pm 9.9 6.5 9.3 96 0.3 N 17 22 9 12 1018.8 1018.9 0.0
24/11:00pm 9.7 5.9 9.2 97 0.2 N 19 26 10 14 1019.0 1019.1 0.0
24/10:30pm 9.7 5.9 9.2 97 0.2 N 19 28 10 15 1019.2 1019.3 0.0
24/10:00pm 9.8 5.8 9.2 96 0.3 N 20 30 11 16 1019.1 1019.2 0.0
24/09:30pm 10.0 6.1 9.5 97 0.3 N 20 32 11 17 1019.1 1019.2 0.0
24/09:00pm 9.5 6.1 9.0 97 0.2 N 17 24 9 13 1019.0 1019.1 0.0
24/08:30pm 9.7 5.9 9.1 96 0.3 N 19 24 10 13 1019.1 1019.2 0.0
24/08:00pm 9.8 5.4 9.0 95 0.4 N 22 30 12 16 1019.0 1019.1 0.0
24/07:30pm 9.8 5.7 8.7 93 0.5 N 20 26 11 14 1019.0 1019.1 0.0
24/07:00pm 9.9 6.0 8.5 91 0.7 N 19 26 10 14 1018.9 1019.0 0.0
24/06:30pm 10.2 6.6 8.5 89 0.8 N 17 22 9 12 1018.7 1018.8 0.0
24/06:00pm 11.1 7.4 7.8 80 1.6 N 17 22 9 12 1018.5 1018.6 0.0
24/05:30pm 12.7 9.2 7.0 68 2.8 NNW 15 20 8 11 1018.3 1018.4 0.0
24/05:00pm 13.1 8.7 6.7 65 3.1 NNW 19 26 10 14 1018.1 1018.2 0.0
24/04:30pm 14.1 9.2 6.7 61 3.6 NNW 22 30 12 16 1018.1 1018.2 0.0
24/04:00pm 15.0 11.7 6.6 57 4.1 NW 13 19 7 10 1018.0 1018.1 0.0
24/03:30pm 15.4 12.3 7.4 59 4.0 NW 13 20 7 11 1017.9 1018.0 0.0
24/03:00pm 14.5 10.2 6.8 60 3.7 NW 19 28 10 15 1018.3 1018.4 0.0
24/02:30pm 14.8 10.3 7.1 60 3.8 NW 20 30 11 16 1018.3 1018.4 0.0
24/02:00pm 14.2 9.7 6.3 59 3.8 NW 19 30 10 16 1018.5 1018.6 0.0
24/01:30pm 14.1 10.2 7.2 63 3.4 WNW 17 24 9 13 1018.8 1018.9 0.0
24/01:00pm 14.0 9.6 7.3 64 3.3 WNW 20 30 11 16 1019.2 1019.3 0.0
24/12:30pm 13.6 8.8 7.2 65 3.1 WNW 22 30 12 16 1019.4 1019.5 0.0
24/12:00pm 13.0 8.7 6.8 66 3.0 NW 19 28 10 15 1019.8 1019.9 0.0
24/11:30am 13.3 9.5 7.7 69 2.8 NW 17 26 9 14 1020.0 1020.1 0.0
24/11:00am 12.8 8.8 6.8 67 2.9 WNW 17 26 9 14 1020.5 1020.6 0.0
24/10:30am 12.4 8.1 7.1 70 2.6 NW 19 26 10 14 1020.4 1020.5 0.0
24/10:00am 11.7 7.5 7.4 75 2.1 NW 19 24 10 13 1020.3 1020.4 0.0
24/09:30am 11.1 7.2 7.0 76 2.0 NNW 17 24 9 13 1020.0 1020.1 0.0
24/09:00am 9.5 6.1 7.6 88 0.9 N 15 17 8 9 1019.6 1019.7 1.6
24/08:30am 7.7 4.1 6.8 94 0.4 N 15 17 8 9 1019.4 1019.5 1.6
24/08:00am 6.3 3.0 6.2 99 0.0 N 13 17 7 9 1019.1 1019.2 1.6
24/07:30am 5.2 1.6 5.1 99 0.0 N 13 15 7 8 1018.8 1018.9 1.6
24/07:00am 5.9 2.5 5.8 99 0.0 NNW 13 15 7 8 1018.6 1018.7 1.6
24/06:30am 6.3 3.3 6.2 99 0.0 NNW 11 13 6 7 1018.5 1018.6 1.6
24/06:00am 6.5 4.0 6.4 99 0.0 N 9 9 5 5 1018.3 1018.4 1.6
24/05:30am 6.9 4.8 6.8 99 0.0 NNW 7 9 4 5 1018.2 1018.3 1.6
24/05:00am 7.0 4.2 6.9 99 0.0 N 11 13 6 7 1017.7 1017.8 1.6
24/04:30am 6.4 3.5 6.3 99 0.0 NNW 11 15 6 8 1017.5 1017.6 1.6
24/04:00am 7.8 4.3 7.4 97 0.2 NNW 15 17 8 9 1017.4 1017.5 1.6
24/03:30am 7.8 4.8 7.7 99 0.0 NW 13 15 7 8 1017.2 1017.3 1.6
24/03:00am 8.7 5.8 8.3 97 0.2 NW 13 17 7 9 1017.2 1017.3 1.6
24/02:30am 9.2 6.8 8.6 96 0.3 NW 11 15 6 8 1017.1 1017.2 1.6
24/02:00am 9.4 6.6 8.5 94 0.4 NW 13 17 7 9 1016.9 1017.0 1.6
24/01:30am 9.1 6.6 8.0 93 0.5 NW 11 15 6 8 1016.6 1016.7 1.6
24/01:00am 9.0 6.4 7.9 93 0.5 NW 11 15 6 8 1016.6 1016.7 1.6
24/12:30am 8.4 5.7 7.5 94 0.4 NNW 11 13 6 7 1016.6 1016.7 1.6
24/12:00am 9.0 6.0 7.8 92 0.6 NW 13 17 7 9 1016.4 1016.5 1.6
 
Date/Time
EST
Temp
°C
App
Temp
°C
Dew
Point
°C
Rel
Hum
%
Delta-T
°C
Wind Press
QNH
hPa
Press
MSL
hPa
Rain since
9am
mm
Dir  Spd
km/h
Gust
km/h
Spd
kts
Gust
kts
23/11:30pm 8.9 6.3 7.7 92 0.6 NW 11 15 6 8 1016.4 1016.5 1.6
23/11:00pm 8.8 6.4 8.5 98 0.1 NNW 11 15 6 8 1016.3 1016.4 1.6
23/10:30pm 8.9 6.5 8.5 97 0.2 NNW 11 15 6 8 1016.3 1016.4 1.6
23/10:00pm 9.3 6.4 8.2 93 0.5 NW 13 15 7 8 1016.1 1016.2 1.6
23/09:30pm 9.6 6.8 8.7 94 0.4 NW 13 17 7 9 1015.8 1015.9 1.6
23/09:00pm 9.2 6.3 8.0 92 0.6 WNW 13 15 7 8 1015.5 1015.6 1.6
23/08:30pm 9.8 7.3 8.4 91 0.7 NW 11 15 6 8 1015.3 1015.4 1.6
23/08:00pm 9.8 6.9 8.1 89 0.8 NW 13 15 7 8 1014.8 1015.0 1.6
23/07:30pm 10.1 7.2 8.2 88 0.9 WNW 13 17 7 9 1014.5 1014.7 1.6
23/07:00pm 10.5 7.5 7.9 84 1.3 NW 13 19 7 10 1014.1 1014.3 1.6
23/06:30pm 11.0 7.0 8.2 83 1.4 NW 19 22 10 12 1013.7 1013.9 1.6
23/06:00pm 10.4 6.8 8.2 86 1.1 NW 17 20 9 11 1013.4 1013.6 1.6
23/05:30pm 10.9 7.8 8.7 86 1.1 NW 15 17 8 9 1013.0 1013.2 1.6
23/05:00pm 11.5 9.0 9.6 88 1.0 WNW 13 19 7 10 1012.7 1012.9 1.6
23/04:30pm 11.7 9.0 10.4 92 0.7 WNW 15 22 8 12 1012.4 1012.6 1.4
23/04:00pm 12.0 10.5 10.4 90 0.8 NW 9 13 5 7 1012.1 1012.3 0.2
23/03:30pm 11.8 7.9 9.4 85 1.2 NW 20 26 11 14 1011.6 1011.8 0.2
23/03:00pm 12.8 6.8 8.7 76 2.1 NNW 30 39 16 21 1011.0 1011.1 0.0
23/02:30pm 13.6 7.7 7.4 66 3.0 NNW 28 37 15 20 1010.6 1010.7 0.0
23/02:00pm 14.2 7.3 7.3 63 3.4 NNW 33 46 18 25 1010.6 1010.7 0.0
23/01:30pm 14.7 9.2 7.7 63 3.5 NNW 26 37 14 20 1010.9 1011.0 0.0
23/01:00pm 12.8 7.4 6.4 65 3.1 N 24 33 13 18 1011.4 1011.5 0.0
23/12:30pm 12.6 7.5 6.2 65 3.0 N 22 35 12 19 1011.9 1012.1 0.0
23/12:00pm 11.4 5.0 5.3 66 2.8 N 28 41 15 22 1012.2 1012.4 0.0
23/11:30am 11.1 5.0 4.8 65 2.9 N 26 37 14 20 1012.6 1012.8 0.0
23/11:00am 10.7 4.1 4.4 65 2.8 N 28 41 15 22 1012.8 1013.0 0.0
23/10:30am 10.9 4.0 4.6 65 2.8 N 30 41 16 22 1012.9 1013.1 0.0
23/10:00am 10.3 3.2 3.6 63 2.9 N 30 41 16 22 1012.9 1013.1 0.0
23/09:30am 10.2 2.7 3.7 64 2.9 N 32 43 17 23 1012.8 1013.0 0.0
23/09:00am 8.7 1.4 2.7 66 2.5 N 30 43 16 23 1012.6 1012.8 0.0
23/08:30am 8.8 1.9 2.6 65 2.6 N 28 37 15 20 1012.7 1012.9 0.0
23/08:00am 8.4 1.0 2.0 64 2.7 N 30 43 16 23 1012.3 1012.5 0.0
23/07:30am 8.4 1.0 2.0 64 2.7 N 30 41 16 22 1012.0 1012.2 0.0
23/07:00am 7.9 0.8 1.3 63 2.7 N 28 43 15 23 1012.1 1012.3 0.0
23/06:30am 8.3 1.9 1.2 61 2.9 N 24 35 13 19 1011.9 1012.1 0.0
23/06:00am 8.4 1.3 1.1 60 3.0 N 28 43 15 23 1011.7 1011.9 0.0
23/05:30am 8.6 1.1 1.3 60 3.0 N 30 44 16 24 1011.6 1011.8 0.0
23/05:07am 8.8 0.9 1.2 59 3.1 N 32 50 17 27 1011.4 1011.5 0.0
23/05:00am 8.9 0.4 1.1 58 3.2 N 35 48 19 26 1011.1 1011.2 0.0

Latest Capital City Observations: Canberra | Sydney | Melbourne | Brisbane | Adelaide | Perth | Hobart | Darwin

Other Formats:

Comma delimited format used in spreadsheet applications
http://www.bom.gov.au/fwo/IDV60901/IDV60901.95866.axf

JavaScript Object Notation format (JSON) in row-major order
http://www.bom.gov.au/fwo/IDV60901/IDV60901.95866.json